Terminal Aerodrome Forecast
Issued by NWS

Home | Current Version | Previous Version | Text Only | Print | Product List | Glossary On
Versions: 1 2 3 4 5 6 7 8 9 10 11 12 13 14 15 16
324
FTUS42 KMLB 230557
TAFLEE
TAF
KLEE 230557Z 2306/2406 00000KT P6SM BKN250
     FM231300 VRB03KT P6SM SCT040
     FM231800 10007KT P6SM VCSH SCT040 BKN250
      TEMPO 2319/2322 P6SM TS BKN050CB
     FM232200 09008KT P6SM VCSH SCT040 BKN250=

USA.gov is the U.S. government's official web portal to all federal, state and local government web resources and services.